Time;durP1;ratioP1;P1;durP2;ratioP2;P2;SDS_P1;SDS_P2;PMS_P1;PMS_P2;Temp;Humidity;BMP_temperature;BMP_pressure;BME280_temperature;BME280_humidity;BME280_pressure;Samples;Min_cycle;Max_cycle;Signal;HPM_P1;HPM_P2
2021/05/14 00:00:56;;;;;;;0.50;0.45;;;;;;;;;;4895458;29;20401;-70
2021/05/14 00:03:23;;;;;;;0.70;0.70;;;;;;;;;;4896449;29;20135;-70
2021/05/14 00:05:49;;;;;;;2.28;0.70;;;;;;;;;;4910892;29;20471;-70
2021/05/14 00:08:16;;;;;;;0.70;0.70;;;;;;;;;;4896571;29;20472;-70
2021/05/14 00:10:43;;;;;;;0.55;0.55;;;;;;;;;;4895496;29;20056;-70
2021/05/14 00:13:09;;;;;;;1.27;0.57;;;;;;;;;;4906245;29;20056;-70
2021/05/14 00:15:36;;;;;;;0.70;0.40;;;;;;;;;;4929631;29;20483;-70
2021/05/14 00:18:03;;;;;;;2.92;0.70;;;;;;;;;;4929974;29;20463;-71
2021/05/14 00:20:29;;;;;;;2.92;1.23;;;;;;;;;;4914137;29;20052;-70
2021/05/14 00:22:56;;;;;;;0.65;0.60;;;;;;;;;;4914024;29;20515;-71
2021/05/14 00:25:23;;;;;;;1.17;0.70;;;;;;;;;;4914009;29;20442;-71
2021/05/14 00:27:49;;;;;;;2.63;0.68;;;;;;;;;;4911184;29;20111;-70
2021/05/14 00:30:16;;;;;;;2.50;0.95;;;;;;;;;;4915950;29;20052;-71
2021/05/14 00:32:44;;;;;;;1.42;0.82;;;;;;;;;;4915237;29;20562;-71
2021/05/14 00:35:11;;;;;;;2.05;0.70;;;;;;;;;;4929498;29;20497;-71
2021/05/14 00:37:38;;;;;;;1.13;0.50;;;;;;;;;;4929462;29;20400;-70
2021/05/14 00:40:05;;;;;;;0.60;0.60;;;;;;;;;;4929771;29;20052;-70
2021/05/14 00:42:32;;;;;;;0.80;0.63;;;;;;;;;;4931648;29;20098;-70
2021/05/14 00:44:59;;;;;;;1.45;0.73;;;;;;;;;;4933316;29;20063;-71
2021/05/14 00:47:26;;;;;;;1.05;0.70;;;;;;;;;;4918498;29;20088;-70
2021/05/14 00:49:52;;;;;;;0.82;0.50;;;;;;;;;;4933311;29;20494;-70
2021/05/14 00:52:19;;;;;;;0.77;0.60;;;;;;;;;;4904288;29;20481;-71
2021/05/14 00:54:47;;;;;;;1.80;0.75;;;;;;;;;;4899641;29;20107;-71
2021/05/14 00:57:16;;;;;;;3.30;0.70;;;;;;;;;;4913964;29;20049;-71
2021/05/14 00:59:46;;;;;;;1.25;0.75;;;;;;;;;;4899637;29;20116;-70
2021/05/14 01:02:13;;;;;;;0.82;0.70;;;;;;;;;;4913980;29;20080;-70
2021/05/14 01:04:40;;;;;;;0.60;0.60;;;;;;;;;;4913904;29;20060;-70
2021/05/14 01:07:07;;;;;;;1.48;0.60;;;;;;;;;;4904938;29;20084;-70
2021/05/14 01:09:33;;;;;;;1.13;0.70;;;;;;;;;;4899387;29;20496;-70
2021/05/14 01:12:00;;;;;;;0.80;0.60;;;;;;;;;;4899664;29;20121;-70
2021/05/14 01:14:27;;;;;;;1.00;0.70;;;;;;;;;;4899046;29;20096;-70
2021/05/14 01:16:54;;;;;;;1.83;0.65;;;;;;;;;;4913431;29;20056;-70
2021/05/14 01:19:20;;;;;;;0.73;0.60;;;;;;;;;;4899576;29;20500;-70
2021/05/14 01:21:47;;;;;;;0.50;0.50;;;;;;;;;;4897902;29;20049;-70
2021/05/14 01:24:14;;;;;;;0.52;0.50;;;;;;;;;;4898105;29;20052;-70
2021/05/14 01:26:40;;;;;;;1.95;0.63;;;;;;;;;;4898879;29;20087;-70
2021/05/14 01:29:09;;;;;;;1.77;0.77;;;;;;;;;;4899078;29;20116;-70
2021/05/14 01:31:35;;;;;;;1.15;0.70;;;;;;;;;;4898967;29;20056;-71
2021/05/14 01:34:04;;;;;;;1.05;0.63;;;;;;;;;;4898916;29;20136;-70
2021/05/14 01:36:30;;;;;;;0.60;0.60;;;;;;;;;;4898714;29;20081;-70
2021/05/14 01:39:05;;;;;;;3.15;0.55;;;;;;;;;;4897841;29;20060;-70
2021/05/14 01:41:32;;;;;;;0.65;0.60;;;;;;;;;;4913193;29;20048;-70
2021/05/14 01:43:58;;;;;;;0.85;0.55;;;;;;;;;;4913102;29;20405;-71
2021/05/14 01:46:25;;;;;;;1.33;0.60;;;;;;;;;;4909937;29;20416;-70
2021/05/14 01:48:53;;;;;;;2.55;0.57;;;;;;;;;;4917286;29;20119;-70
2021/05/14 01:51:23;;;;;;;1.15;0.70;;;;;;;;;;4916479;29;20467;-70
2021/05/14 01:53:50;;;;;;;1.77;0.63;;;;;;;;;;4916384;29;20052;-70
2021/05/14 01:56:18;;;;;;;1.02;0.60;;;;;;;;;;4916025;29;20060;-70
2021/05/14 01:58:51;;;;;;;1.35;0.75;;;;;;;;;;4915707;29;20108;-70
2021/05/14 02:01:17;;;;;;;;;;;;;;;;;;4932577;29;20332;-71
2021/05/14 02:03:44;;;;;;;1.40;0.90;;;;;;;;;;4931792;29;20349;-71
2021/05/14 02:06:11;;;;;;;2.17;0.63;;;;;;;;;;4916039;29;20056;-71
2021/05/14 02:08:38;;;;;;;1.27;0.50;;;;;;;;;;4917300;29;20051;-71
2021/05/14 02:11:09;;;;;;;0.77;0.70;;;;;;;;;;4916033;29;20052;-71
2021/05/14 02:13:37;;;;;;;2.35;0.75;;;;;;;;;;4931022;29;20052;-71
2021/05/14 02:16:05;;;;;;;1.15;0.70;;;;;;;;;;4931547;29;20048;-71
2021/05/14 02:18:32;;;;;;;3.97;0.70;;;;;;;;;;4931522;29;20223;-71
2021/05/14 02:20:59;;;;;;;1.02;0.93;;;;;;;;;;4929861;29;20056;-70
2021/05/14 02:23:26;;;;;;;1.15;0.80;;;;;;;;;;4896784;29;20077;-70
2021/05/14 02:25:53;;;;;;;1.33;0.77;;;;;;;;;;4896737;29;20057;-70
2021/05/14 02:28:20;;;;;;;1.05;0.68;;;;;;;;;;4896928;29;20048;-70
2021/05/14 02:30:46;;;;;;;0.75;0.55;;;;;;;;;;4912506;29;20056;-70
2021/05/14 02:33:13;;;;;;;2.03;0.95;;;;;;;;;;4901760;29;20506;-70
2021/05/14 02:35:41;;;;;;;1.23;0.70;;;;;;;;;;4916551;29;20059;-70
2021/05/14 02:38:08;;;;;;;2.88;0.60;;;;;;;;;;4915629;29;20495;-70
2021/05/14 02:40:35;;;;;;;0.93;0.57;;;;;;;;;;4915393;29;20048;-71
2021/05/14 02:43:02;;;;;;;2.13;0.63;;;;;;;;;;4916137;29;20049;-71
2021/05/14 02:45:28;;;;;;;0.93;0.63;;;;;;;;;;4912005;29;20500;-71
2021/05/14 02:47:55;;;;;;;1.85;0.80;;;;;;;;;;4896472;29;20500;-71
2021/05/14 02:50:22;;;;;;;0.63;0.63;;;;;;;;;;4896624;29;20056;-70
2021/05/14 02:52:48;;;;;;;1.20;0.80;;;;;;;;;;4896609;29;20044;-70
2021/05/14 02:55:15;;;;;;;3.20;0.80;;;;;;;;;;4897409;29;20086;-71
2021/05/14 02:57:43;;;;;;;1.48;0.75;;;;;;;;;;4897491;29;20048;-71
2021/05/14 03:00:11;;;;;;;0.90;0.80;;;;;;;;;;4897431;29;20100;-70
2021/05/14 03:02:37;;;;;;;2.08;0.90;;;;;;;;;;4897217;29;20496;-70
2021/05/14 03:05:04;;;;;;;2.03;0.75;;;;;;;;;;4895636;29;20052;-70
2021/05/14 03:07:31;;;;;;;1.65;1.00;;;;;;;;;;4911436;29;20056;-70
2021/05/14 03:09:58;;;;;;;3.50;0.82;;;;;;;;;;4897582;29;20083;-70
2021/05/14 03:12:25;;;;;;;2.78;1.10;;;;;;;;;;4896075;29;20045;-70
2021/05/14 03:14:51;;;;;;;2.47;0.98;;;;;;;;;;4897092;29;20060;-70
2021/05/14 03:17:18;;;;;;;1.05;0.70;;;;;;;;;;4896904;29;20131;-70
2021/05/14 03:19:45;;;;;;;2.53;0.95;;;;;;;;;;4897154;29;20053;-70
2021/05/14 03:22:11;;;;;;;1.20;1.10;;;;;;;;;;4896993;29;20045;-70
2021/05/14 03:24:38;;;;;;;0.93;0.80;;;;;;;;;;4896862;29;20052;-70
2021/05/14 03:27:05;;;;;;;1.10;0.90;;;;;;;;;;4904220;29;20058;-70
2021/05/14 03:29:31;;;;;;;1.02;0.93;;;;;;;;;;4905724;29;20435;-70
2021/05/14 03:31:58;;;;;;;2.10;1.10;;;;;;;;;;4915852;29;20103;-70
2021/05/14 03:34:26;;;;;;;3.25;1.05;;;;;;;;;;4914779;29;20056;-71
2021/05/14 03:36:53;;;;;;;1.98;1.13;;;;;;;;;;4934187;29;20060;-70
2021/05/14 03:39:22;;;;;;;1.10;1.00;;;;;;;;;;4915623;29;20469;-71
2021/05/14 03:41:53;;;;;;;2.22;1.08;;;;;;;;;;4915746;29;20075;-71
2021/05/14 03:44:20;;;;;;;2.75;0.90;;;;;;;;;;4930881;29;20067;-70
2021/05/14 03:46:46;;;;;;;1.38;1.10;;;;;;;;;;4908133;29;20112;-70
2021/05/14 03:49:13;;;;;;;1.00;0.90;;;;;;;;;;4896903;29;20060;-70
2021/05/14 03:51:40;;;;;;;1.25;1.15;;;;;;;;;;4880296;29;20563;-70
2021/05/14 03:54:06;;;;;;;1.65;1.30;;;;;;;;;;4895448;29;20567;-70
2021/05/14 03:56:33;;;;;;;1.95;1.00;;;;;;;;;;4898829;29;20460;-70
2021/05/14 03:59:00;;;;;;;5.00;1.08;;;;;;;;;;4912761;29;20475;-71
2021/05/14 04:01:30;;;;;;;1.92;1.08;;;;;;;;;;4912167;29;20477;-71
2021/05/14 04:03:56;;;;;;;2.67;1.42;;;;;;;;;;4895441;29;20059;-71
2021/05/14 04:06:25;;;;;;;1.42;1.33;;;;;;;;;;4895499;29;20059;-71
2021/05/14 04:08:51;;;;;;;1.60;1.10;;;;;;;;;;4895612;29;20053;-71
2021/05/14 04:11:41;;;;;;;2.72;1.17;;;;;;;;;;4896512;29;20053;-71
2021/05/14 04:16:54;;;;;;;1.42;1.00;;;;;;;;;;4911378;29;20090;-71
2021/05/14 04:19:20;;;;;;;3.08;1.30;;;;;;;;;;4915531;29;20052;-70
2021/05/14 04:21:47;;;;;;;2.42;1.40;;;;;;;;;;4918080;29;20475;-70
2021/05/14 04:24:14;;;;;;;2.58;1.52;;;;;;;;;;4919251;29;20138;-71
2021/05/14 04:26:40;;;;;;;2.83;1.23;;;;;;;;;;4917382;29;20127;-70
2021/05/14 04:29:07;;;;;;;1.48;1.38;;;;;;;;;;4919221;29;20107;-70
2021/05/14 04:31:34;;;;;;;3.38;1.95;;;;;;;;;;4919060;29;20201;-70
2021/05/14 04:36:28;;;;;;;1.63;1.20;;;;;;;;;;4916155;29;20513;-72
2021/05/14 04:38:55;;;;;;;3.63;1.40;;;;;;;;;;4918947;29;20048;-72
2021/05/14 04:41:21;;;;;;;1.30;1.15;;;;;;;;;;4918443;29;20056;-73
2021/05/14 04:43:48;;;;;;;1.58;1.48;;;;;;;;;;4902282;29;20048;-73
2021/05/14 04:46:15;;;;;;;2.20;1.30;;;;;;;;;;4918616;29;20087;-73
2021/05/14 04:48:55;;;;;;;2.58;1.50;;;;;;;;;;4918675;29;20107;-73
2021/05/14 04:51:22;;;;;;;3.25;1.63;;;;;;;;;;4917412;29;20072;-72
2021/05/14 04:53:49;;;;;;;2.80;1.50;;;;;;;;;;4917041;29;20131;-72
2021/05/14 04:56:15;;;;;;;3.83;1.60;;;;;;;;;;4898235;29;20408;-73
2021/05/14 04:58:42;;;;;;;2.53;1.30;;;;;;;;;;4917626;29;20055;-72
2021/05/14 05:01:12;;;;;;;4.25;1.38;;;;;;;;;;4893703;29;20104;-73
2021/05/14 05:03:38;;;;;;;2.78;1.52;;;;;;;;;;4884810;29;20049;-73
2021/05/14 05:06:05;;;;;;;2.45;1.10;;;;;;;;;;4883346;29;20056;-72
2021/05/14 05:08:31;;;;;;;1.92;1.20;;;;;;;;;;4899692;29;20072;-72
2021/05/14 05:10:58;;;;;;;1.75;1.17;;;;;;;;;;4899620;29;20112;-73
2021/05/14 05:13:25;;;;;;;1.50;1.00;;;;;;;;;;4899408;29;20093;-72
2021/05/14 05:15:51;;;;;;;2.00;1.38;;;;;;;;;;4899183;29;20089;-74
2021/05/14 05:18:18;;;;;;;2.65;1.20;;;;;;;;;;4899459;29;20067;-73
2021/05/14 05:20:44;;;;;;;1.38;1.00;;;;;;;;;;4901495;29;20127;-72
2021/05/14 05:23:11;;;;;;;4.63;1.30;;;;;;;;;;4918226;29;20048;-73
2021/05/14 05:25:37;;;;;;;3.15;1.13;;;;;;;;;;4917805;29;20456;-73
2021/05/14 05:28:04;;;;;;;3.75;1.50;;;;;;;;;;4917645;29;20075;-73
2021/05/14 05:30:31;;;;;;;2.53;1.38;;;;;;;;;;4918234;29;20052;-73
2021/05/14 05:32:57;;;;;;;1.73;1.10;;;;;;;;;;4918008;29;20052;-73
2021/05/14 05:35:24;;;;;;;1.60;1.05;;;;;;;;;;4917809;29;20115;-73
2021/05/14 05:37:50;;;;;;;1.63;1.20;;;;;;;;;;4917883;29;20052;-73
2021/05/14 05:40:17;;;;;;;3.08;1.10;;;;;;;;;;4917944;29;20123;-72
2021/05/14 05:42:43;;;;;;;2.70;1.00;;;;;;;;;;4917985;29;20109;-72
2021/05/14 05:45:10;;;;;;;2.33;1.10;;;;;;;;;;4917536;29;20427;-72
2021/05/14 05:47:37;;;;;;;2.47;1.27;;;;;;;;;;4898657;29;20080;-72
2021/05/14 05:50:04;;;;;;;3.05;1.20;;;;;;;;;;4915719;29;20471;-72
2021/05/14 05:52:31;;;;;;;2.90;1.13;;;;;;;;;;4915472;29;20504;-72
2021/05/14 05:54:57;;;;;;;1.40;1.25;;;;;;;;;;4915545;29;20060;-72
2021/05/14 05:57:24;;;;;;;1.80;1.13;;;;;;;;;;4913518;29;20064;-72
2021/05/14 05:59:51;;;;;;;2.20;1.13;;;;;;;;;;4912699;29;20522;-72
2021/05/14 06:02:17;;;;;;;4.72;1.10;;;;;;;;;;4913722;29;20508;-72
2021/05/14 06:04:44;;;;;;;3.58;1.02;;;;;;;;;;4914237;29;20056;-71
2021/05/14 06:07:11;;;;;;;4.25;1.20;;;;;;;;;;4915354;29;20064;-72
2021/05/14 06:09:37;;;;;;;2.92;1.92;;;;;;;;;;4915197;29;20056;-71
2021/05/14 06:12:04;;;;;;;2.47;1.30;;;;;;;;;;4896995;29;20142;-70
2021/05/14 06:14:31;;;;;;;1.77;1.20;;;;;;;;;;4906523;29;20084;-71
2021/05/14 06:16:57;;;;;;;2.45;1.00;;;;;;;;;;4914715;29;20048;-70
2021/05/14 06:19:31;;;;;;;4.28;1.58;;;;;;;;;;4915107;29;20503;-72
2021/05/14 06:21:57;;;;;;;3.85;1.85;;;;;;;;;;4914380;29;20107;-73
2021/05/14 06:24:25;;;;;;;2.65;1.10;;;;;;;;;;4930102;23;20343;-72
2021/05/14 06:26:52;;;;;;;2.05;0.90;;;;;;;;;;4929741;29;20647;-72
2021/05/14 06:29:18;;;;;;;1.40;0.70;;;;;;;;;;4932179;29;20126;-72
2021/05/14 06:31:45;;;;;;;9.07;5.30;;;;;;;;;;4934032;29;20399;-71
2021/05/14 06:34:12;;;;;;;3.28;1.67;;;;;;;;;;4923876;23;20047;-72
2021/05/14 06:36:38;;;;;;;4.53;1.90;;;;;;;;;;4924812;29;20092;-71
2021/05/14 06:39:05;;;;;;;5.78;3.90;;;;;;;;;;4922628;29;20055;-73
2021/05/14 06:41:31;;;;;;;2.75;2.03;;;;;;;;;;4925194;29;20048;-72
2021/05/14 06:43:58;;;;;;;2.95;1.00;;;;;;;;;;4927262;29;20103;-73
2021/05/14 06:46:25;;;;;;;0.98;0.65;;;;;;;;;;4906707;29;20088;-74
2021/05/14 06:48:51;;;;;;;3.40;0.73;;;;;;;;;;4888363;29;20040;-74
2021/05/14 06:51:18;;;;;;;1.85;0.60;;;;;;;;;;4904500;29;20052;-69
2021/05/14 06:53:46;;;;;;;0.47;0.38;;;;;;;;;;4900640;29;20060;-72
2021/05/14 06:56:13;;;;;;;1.23;0.40;;;;;;;;;;4905956;29;20045;-73
2021/05/14 06:58:40;;;;;;;0.70;0.32;;;;;;;;;;4904503;29;20100;-73
2021/05/14 07:01:22;;;;;;;2.22;0.45;;;;;;;;;;5058737;28;20367;-73
2021/05/14 07:03:50;;;;;;;0.77;0.60;;;;;;;;;;5046912;28;20492;-73
2021/05/14 07:06:16;;;;;;;0.90;0.60;;;;;;;;;;5022422;28;20072;-70
2021/05/14 07:08:45;;;;;;;2.22;0.52;;;;;;;;;;5047228;28;20088;-71
2021/05/14 07:11:11;;;;;;;1.00;0.45;;;;;;;;;;5031591;28;20060;-71
2021/05/14 07:13:38;;;;;;;1.20;0.65;;;;;;;;;;5044057;28;20557;-71
2021/05/14 07:16:04;;;;;;;0.90;0.70;;;;;;;;;;5047035;28;20057;-72
2021/05/14 07:18:32;;;;;;;2.42;0.90;;;;;;;;;;5046595;28;20539;-71
2021/05/14 07:20:59;;;;;;;5.30;0.52;;;;;;;;;;5046027;28;20041;-71
2021/05/14 07:23:45;;;;;;;1.95;0.43;;;;;;;;;;5047044;28;20053;-70
2021/05/14 07:26:12;;;;;;;2.38;0.50;;;;;;;;;;5045770;28;20049;-70
2021/05/14 07:28:39;;;;;;;2.85;0.70;;;;;;;;;;5047154;28;20053;-70
2021/05/14 07:31:05;;;;;;;3.05;0.57;;;;;;;;;;5044521;28;20048;-70
2021/05/14 07:33:32;;;;;;;0.52;0.50;;;;;;;;;;5086891;28;20498;-71
2021/05/14 07:35:59;;;;;;;0.40;0.40;;;;;;;;;;5083796;28;20079;-72
2021/05/14 07:38:25;;;;;;;1.40;0.60;;;;;;;;;;5084683;28;20052;-71
2021/05/14 07:40:52;;;;;;;0.80;0.80;;;;;;;;;;5085657;28;20048;-71
2021/05/14 07:43:18;;;;;;;1.40;0.43;;;;;;;;;;5085828;28;20051;-71
2021/05/14 07:45:45;;;;;;;2.40;0.73;;;;;;;;;;5086393;28;20095;-72
2021/05/14 07:48:20;;;;;;;1.80;0.38;;;;;;;;;;5085226;28;20102;-72
2021/05/14 07:50:50;;;;;;;3.00;0.60;;;;;;;;;;5086805;28;20040;-72
2021/05/14 07:53:17;;;;;;;1.80;0.40;;;;;;;;;;5085070;28;20048;-73
2021/05/14 07:55:43;;;;;;;1.55;0.40;;;;;;;;;;5086955;28;20044;-73
2021/05/14 07:58:10;;;;;;;0.75;0.70;;;;;;;;;;5086437;28;20049;-73
2021/05/14 08:00:37;;;;;;;1.38;0.47;;;;;;;;;;5085366;28;20478;-73
2021/05/14 08:03:03;;;;;;;0.93;0.38;;;;;;;;;;5084199;28;20052;-72
2021/05/14 08:05:30;;;;;;;1.95;0.50;;;;;;;;;;5087638;28;20102;-73
2021/05/14 08:08:00;;;;;;;0.85;0.40;;;;;;;;;;5088087;28;20197;-73
2021/05/14 08:10:27;;;;;;;1.02;0.40;;;;;;;;;;5085604;28;20485;-72
2021/05/14 08:13:13;;;;;;;0.57;0.30;;;;;;;;;;5074404;28;20082;-72
2021/05/14 08:15:40;;;;;;;0.50;0.50;;;;;;;;;;5059418;28;20044;-72
2021/05/14 08:18:07;;;;;;;2.00;0.30;;;;;;;;;;5056744;28;20076;-71
2021/05/14 08:20:34;;;;;;;0.57;0.30;;;;;;;;;;5054152;28;20419;-71
2021/05/14 08:23:00;;;;;;;0.82;0.30;;;;;;;;;;5054160;28;20052;-71
2021/05/14 08:25:27;;;;;;;0.98;0.30;;;;;;;;;;5053649;28;20049;-71
2021/05/14 08:27:54;;;;;;;0.17;0.17;;;;;;;;;;5054127;28;20053;-71
2021/05/14 08:30:20;;;;;;;1.02;0.40;;;;;;;;;;5053088;28;20490;-70
2021/05/14 08:32:47;;;;;;;1.40;0.43;;;;;;;;;;5053842;28;20056;-71
2021/05/14 08:35:13;;;;;;;0.65;0.40;;;;;;;;;;5054040;28;20081;-72
2021/05/14 08:37:41;;;;;;;0.57;0.30;;;;;;;;;;5053921;28;20404;-71
2021/05/14 08:40:08;;;;;;;1.63;0.30;;;;;;;;;;5053879;28;20041;-71
2021/05/14 08:42:39;;;;;;;0.93;0.40;;;;;;;;;;5065434;28;20447;-70
2021/05/14 08:45:13;;;;;;;1.67;0.40;;;;;;;;;;5072409;28;20098;-72
2021/05/14 08:47:42;;;;;;;1.02;0.50;;;;;;;;;;5073630;28;20045;-71
2021/05/14 08:50:11;;;;;;;0.70;0.30;;;;;;;;;;5055786;28;20141;-70
2021/05/14 08:52:40;;;;;;;0.40;0.20;;;;;;;;;;5073475;28;20056;-69
2021/05/14 08:55:08;;;;;;;2.10;0.30;;;;;;;;;;5063623;28;20102;-70
2021/05/14 08:57:34;;;;;;;0.95;0.30;;;;;;;;;;5053121;28;20084;-69
2021/05/14 09:00:01;;;;;;;0.82;0.50;;;;;;;;;;5053242;28;20460;-69
2021/05/14 09:02:28;;;;;;;0.57;0.35;;;;;;;;;;5067515;28;20072;-70
2021/05/14 09:04:54;;;;;;;0.80;0.50;;;;;;;;;;5066470;28;20045;-70
2021/05/14 09:07:21;;;;;;;1.35;0.30;;;;;;;;;;5059867;28;20470;-71
2021/05/14 09:10:08;;;;;;;1.08;0.65;;;;;;;;;;5068970;28;20048;-70
2021/05/14 09:12:35;;;;;;;2.15;0.40;;;;;;;;;;5062574;28;20049;-70
2021/05/14 09:15:35;;;;;;;0.98;0.50;;;;;;;;;;5060150;28;20047;-72
2021/05/14 09:18:15;;;;;;;2.67;0.73;;;;;;;;;;5066996;28;20151;-72
2021/05/14 09:20:59;;;;;;;0.93;0.30;;;;;;;;;;5063260;28;20044;-73
2021/05/14 09:23:29;;;;;;;0.30;0.30;;;;;;;;;;5048444;28;20056;-73
2021/05/14 09:26:00;;;;;;;0.28;0.20;;;;;;;;;;5054800;28;20044;-70
2021/05/14 09:28:33;;;;;;;2.08;0.30;;;;;;;;;;5059105;28;20147;-71
2021/05/14 09:31:04;;;;;;;0.95;0.30;;;;;;;;;;5069165;28;20041;-71
2021/05/14 09:33:32;;;;;;;0.70;0.40;;;;;;;;;;5061892;28;20083;-69
2021/05/14 09:36:00;;;;;;;0.35;0.25;;;;;;;;;;5068234;28;20507;-72
2021/05/14 09:38:27;;;;;;;1.38;0.30;;;;;;;;;;5061658;28;20087;-72
2021/05/14 09:40:54;;;;;;;0.60;0.30;;;;;;;;;;5068944;28;20040;-72
2021/05/14 09:43:24;;;;;;;0.57;0.30;;;;;;;;;;5068088;28;20052;-70
2021/05/14 09:45:51;;;;;;;1.83;0.30;;;;;;;;;;5055504;28;20463;-71
2021/05/14 09:48:27;;;;;;;0.85;0.30;;;;;;;;;;5041565;28;20098;-72
2021/05/14 09:50:55;;;;;;;1.67;0.57;;;;;;;;;;5056233;28;20596;-71
2021/05/14 09:53:24;;;;;;;4.25;0.40;;;;;;;;;;5064063;28;20053;-73
2021/05/14 09:55:58;;;;;;;1.25;1.15;;;;;;;;;;5048239;28;20053;-72
2021/05/14 09:58:26;;;;;;;0.40;0.40;;;;;;;;;;5063136;28;20044;-72
2021/05/14 10:00:57;;;;;;;0.32;0.30;;;;;;;;;;5061450;28;20041;-71
2021/05/14 10:03:27;;;;;;;2.47;0.50;;;;;;;;;;5063315;28;20082;-72
2021/05/14 10:05:56;;;;;;;0.70;0.20;;;;;;;;;;5064703;28;20089;-73
2021/05/14 10:08:31;;;;;;;0.55;0.30;;;;;;;;;;5048565;28;20060;-72
2021/05/14 10:11:04;;;;;;;1.45;0.30;;;;;;;;;;5046175;28;20045;-72
2021/05/14 10:13:32;;;;;;;0.52;0.30;;;;;;;;;;5063968;28;20079;-72
2021/05/14 10:16:03;;;;;;;0.30;0.30;;;;;;;;;;5059491;28;20426;-71
2021/05/14 10:18:36;;;;;;;0.40;0.30;;;;;;;;;;5065301;28;20585;-79
2021/05/14 10:21:07;;;;;;;0.45;0.30;;;;;;;;;;5047948;28;20048;-75
2021/05/14 10:23:53;;;;;;;1.23;0.50;;;;;;;;;;5062556;28;20098;-73
2021/05/14 10:26:21;;;;;;;0.88;0.30;;;;;;;;;;5068491;28;20061;-75
2021/05/14 10:28:49;;;;;;;1.35;0.20;;;;;;;;;;5066160;28;20040;-77
2021/05/14 10:31:21;;;;;;;2.30;0.40;;;;;;;;;;5063152;28;20045;-75
2021/05/14 10:33:58;;;;;;;1.48;0.40;;;;;;;;;;5052379;28;20102;-75
2021/05/14 10:36:55;;;;;;;1.45;0.30;;;;;;;;;;5069926;28;20094;-75
2021/05/14 10:39:36;;;;;;;1.33;0.45;;;;;;;;;;5064404;28;20084;-75
2021/05/14 10:42:13;;;;;;;0.63;0.30;;;;;;;;;;5065023;28;20076;-75
2021/05/14 10:44:41;;;;;;;0.30;0.30;;;;;;;;;;5069393;28;20067;-74
2021/05/14 10:47:23;;;;;;;0.20;0.20;;;;;;;;;;5069877;28;20408;-75
2021/05/14 10:50:05;;;;;;;0.47;0.20;;;;;;;;;;5068572;28;20045;-73
2021/05/14 10:52:33;;;;;;;0.52;0.10;;;;;;;;;;5068994;28;20124;-74
2021/05/14 10:55:01;;;;;;;2.95;1.02;;;;;;;;;;5069075;28;20045;-74
2021/05/14 10:57:43;;;;;;;0.88;0.20;;;;;;;;;;5050598;28;20049;-74
2021/05/14 11:00:26;;;;;;;0.97;0.30;;;;;;;;;;5068111;28;20045;-74
2021/05/14 11:03:11;;;;;;;0.77;0.30;;;;;;;;;;5068105;28;20298;-74
2021/05/14 11:05:41;;;;;;;1.13;0.20;;;;;;;;;;5064922;28;20052;-74
2021/05/14 11:08:08;;;;;;;0.30;0.30;;;;;;;;;;5053421;28;20404;-72
2021/05/14 11:10:36;;;;;;;0.40;0.30;;;;;;;;;;5049821;28;20049;-77
2021/05/14 11:13:35;;;;;;;1.88;0.60;;;;;;;;;;5050471;28;20503;-78
2021/05/14 11:16:31;;;;;;;0.75;0.40;;;;;;;;;;5048270;28;20056;-77
2021/05/14 11:18:57;;;;;;;1.90;0.77;;;;;;;;;;5051657;28;20096;-78
2021/05/14 11:22:00;;;;;;;1.23;0.43;;;;;;;;;;5050758;28;20041;-77
2021/05/14 11:24:37;;;;;;;1.80;0.77;;;;;;;;;;5051351;28;20048;-76
2021/05/14 11:27:08;;;;;;;1.83;0.50;;;;;;;;;;5051406;28;20048;-75
2021/05/14 11:29:36;;;;;;;2.05;0.70;;;;;;;;;;5052370;28;20095;-76
2021/05/14 11:32:17;;;;;;;1.48;0.60;;;;;;;;;;5063294;28;20053;-73
2021/05/14 11:34:57;;;;;;;1.77;0.50;;;;;;;;;;5061258;28;20044;-73
2021/05/14 11:40:30;;;;;;;0.52;0.38;;;;;;;;;;5036382;22;20419;-73
2021/05/14 11:42:59;;;;;;;1.75;0.63;;;;;;;;;;5023952;28;20049;-74
2021/05/14 11:45:35;;;;;;;0.95;0.40;;;;;;;;;;5017953;28;20058;-71
2021/05/14 11:48:18;;;;;;;1.45;0.40;;;;;;;;;;5005212;28;20119;-72
2021/05/14 11:50:49;;;;;;;1.55;0.40;;;;;;;;;;5022418;28;20045;-73
2021/05/14 11:53:17;;;;;;;0.47;0.20;;;;;;;;;;4965412;28;20270;-72
2021/05/14 11:55:48;;;;;;;1.95;0.30;;;;;;;;;;5019754;28;20049;-72
2021/05/14 11:58:15;;;;;;;1.60;0.20;;;;;;;;;;5019673;28;20111;-74
2021/05/14 12:00:42;;;;;;;0.30;0.25;;;;;;;;;;5020634;28;20054;-73
2021/05/14 12:03:13;;;;;;;2.63;0.30;;;;;;;;;;5023560;28;20089;-72
2021/05/14 12:05:41;;;;;;;0.35;0.20;;;;;;;;;;5023725;28;20061;-73
2021/05/14 12:08:15;;;;;;;0.80;0.30;;;;;;;;;;5021619;28;20072;-71
2021/05/14 12:10:55;;;;;;;1.08;0.38;;;;;;;;;;5000096;28;20050;-71
2021/05/14 12:13:23;;;;;;;1.08;0.30;;;;;;;;;;5003855;28;20050;-71
2021/05/14 12:16:03;;;;;;;0.50;0.20;;;;;;;;;;5000820;28;20050;-71
2021/05/14 12:18:35;;;;;;;0.45;0.15;;;;;;;;;;5000672;28;20050;-71
2021/05/14 12:21:06;;;;;;;1.08;0.30;;;;;;;;;;4993879;28;20047;-72
2021/05/14 12:23:33;;;;;;;0.52;0.17;;;;;;;;;;4993875;28;20054;-72
2021/05/14 12:26:06;;;;;;;0.57;0.20;;;;;;;;;;4994566;28;20157;-72
2021/05/14 12:28:41;;;;;;;0.47;0.30;;;;;;;;;;4993133;28;20073;-73
2021/05/14 12:31:10;;;;;;;0.25;0.10;;;;;;;;;;4992709;28;20050;-73
2021/05/14 12:33:59;;;;;;;0.40;0.10;;;;;;;;;;4993722;28;20129;-73
2021/05/14 12:36:31;;;;;;;0.63;0.50;;;;;;;;;;5011257;28;20053;-73
2021/05/14 12:39:17;;;;;;;0.43;0.30;;;;;;;;;;5003028;28;20046;-72
2021/05/14 12:41:51;;;;;;;0.60;0.30;;;;;;;;;;4993503;28;20069;-73
2021/05/14 12:44:34;;;;;;;1.15;0.50;;;;;;;;;;4994730;28;20046;-72
2021/05/14 12:47:18;;;;;;;1.00;0.30;;;;;;;;;;4993238;28;20054;-72
2021/05/14 12:49:48;;;;;;;1.20;0.30;;;;;;;;;;4994484;28;20054;-73
2021/05/14 12:52:24;;;;;;;0.70;0.30;;;;;;;;;;4994570;28;20070;-73
2021/05/14 12:55:00;;;;;;;2.05;0.45;;;;;;;;;;4994624;28;20197;-72
2021/05/14 12:57:30;;;;;;;0.98;0.40;;;;;;;;;;5007180;28;20119;-73
2021/05/14 12:59:58;;;;;;;1.00;0.20;;;;;;;;;;5013749;28;20057;-73
2021/05/14 13:02:26;;;;;;;0.20;0.20;;;;;;;;;;5012539;28;20052;-73
2021/05/14 13:05:04;;;;;;;0.63;0.30;;;;;;;;;;5012561;28;20057;-73
2021/05/14 13:07:31;;;;;;;1.65;0.20;;;;;;;;;;5012470;28;20073;-73
2021/05/14 13:09:58;;;;;;;0.57;0.30;;;;;;;;;;5012539;28;20417;-73
2021/05/14 13:12:25;;;;;;;0.40;0.10;;;;;;;;;;5012266;28;20046;-73
2021/05/14 13:14:54;;;;;;;0.32;0.20;;;;;;;;;;5013649;28;20054;-73
2021/05/14 13:17:21;;;;;;;0.45;0.20;;;;;;;;;;4996082;28;20559;-73
2021/05/14 13:19:47;;;;;;;0.32;0.15;;;;;;;;;;4992644;28;20571;-73
2021/05/14 13:22:14;;;;;;;0.47;0.20;;;;;;;;;;4993844;28;20493;-71
2021/05/14 13:24:42;;;;;;;0.20;0.15;;;;;;;;;;4993920;28;20061;-71
2021/05/14 13:27:09;;;;;;;1.35;0.10;;;;;;;;;;4993210;28;20058;-71
2021/05/14 13:29:36;;;;;;;0.30;0.20;;;;;;;;;;5007082;28;20499;-72
2021/05/14 13:32:03;;;;;;;0.30;0.20;;;;;;;;;;4999554;28;20053;-75
2021/05/14 13:34:32;;;;;;;0.98;0.40;;;;;;;;;;4995494;28;20148;-75
2021/05/14 13:36:59;;;;;;;1.17;0.40;;;;;;;;;;5020305;28;20084;-72
2021/05/14 13:39:26;;;;;;;0.90;0.22;;;;;;;;;;5019842;28;20115;-73
2021/05/14 13:41:53;;;;;;;0.45;0.13;;;;;;;;;;5015075;28;20038;-73
2021/05/14 13:44:20;;;;;;;0.60;0.30;;;;;;;;;;5021562;28;20053;-74
2021/05/14 13:46:47;;;;;;;0.65;0.50;;;;;;;;;;5016631;28;20104;-73
2021/05/14 13:49:14;;;;;;;0.30;0.20;;;;;;;;;;5018989;28;20049;-73
2021/05/14 13:51:40;;;;;;;0.82;0.50;;;;;;;;;;5018458;28;20085;-73
2021/05/14 13:54:07;;;;;;;1.55;0.40;;;;;;;;;;5000114;28;20131;-73
2021/05/14 13:56:33;;;;;;;0.30;0.30;;;;;;;;;;5016322;28;20100;-73
2021/05/14 13:59:00;;;;;;;0.93;0.20;;;;;;;;;;5017265;28;20046;-73
2021/05/14 14:01:27;;;;;;;0.85;0.50;;;;;;;;;;5013298;28;20100;-74
2021/05/14 14:03:54;;;;;;;3.00;0.70;;;;;;;;;;5019785;28;20523;-73
2021/05/14 14:06:21;;;;;;;1.02;0.32;;;;;;;;;;5018215;28;20421;-74
2021/05/14 14:08:48;;;;;;;0.65;0.40;;;;;;;;;;5019104;28;20041;-73
2021/05/14 14:11:15;;;;;;;5.50;4.25;;;;;;;;;;5017622;28;20092;-73
2021/05/14 14:13:41;;;;;;;2.88;1.70;;;;;;;;;;5016640;28;20100;-73
2021/05/14 14:16:08;;;;;;;1.38;0.40;;;;;;;;;;5011069;28;20401;-72
2021/05/14 14:18:35;;;;;;;1.10;0.22;;;;;;;;;;5010573;28;20417;-74
2021/05/14 14:21:02;;;;;;;0.68;0.28;;;;;;;;;;5010632;28;20429;-73
2021/05/14 14:23:29;;;;;;;1.13;0.30;;;;;;;;;;5010453;28;20046;-73
2021/05/14 14:25:55;;;;;;;0.35;0.30;;;;;;;;;;5012119;28;20057;-74
2021/05/14 14:28:22;;;;;;;0.50;0.20;;;;;;;;;;5012502;28;20563;-73
2021/05/14 14:30:48;;;;;;;2.95;0.40;;;;;;;;;;5011052;28;20054;-73
2021/05/14 14:33:15;;;;;;;0.80;0.13;;;;;;;;;;5012248;28;20108;-73
2021/05/14 14:35:41;;;;;;;1.85;0.40;;;;;;;;;;4999535;28;20078;-72
2021/05/14 14:38:17;;;;;;;2.22;0.28;;;;;;;;;;5015584;28;20053;-72
2021/05/14 14:40:44;;;;;;;0.57;0.40;;;;;;;;;;5016419;28;20634;-72
2021/05/14 14:43:12;;;;;;;1.60;0.52;;;;;;;;;;5020154;28;20042;-71
2021/05/14 14:45:39;;;;;;;0.30;0.30;;;;;;;;;;5019650;28;20057;-70
2021/05/14 14:48:06;;;;;;;3.25;0.73;;;;;;;;;;5019203;28;20053;-70
2021/05/14 14:50:32;;;;;;;1.55;0.40;;;;;;;;;;5001750;28;20065;-72
2021/05/14 14:52:59;;;;;;;2.03;0.30;;;;;;;;;;5006799;28;20052;-72
2021/05/14 14:55:26;;;;;;;1.30;0.52;;;;;;;;;;5016143;28;20061;-73
2021/05/14 14:57:52;;;;;;;0.65;0.38;;;;;;;;;;5019115;28;20049;-71
2021/05/14 15:00:19;;;;;;;0.70;0.40;;;;;;;;;;5018553;28;20444;-72
2021/05/14 15:02:47;;;;;;;2.38;0.50;;;;;;;;;;5018920;28;20069;-73